Time;durP1;ratioP1;P1;durP2;ratioP2;P2;SDS_P1;SDS_P2;PMS_P1;PMS_P2;Temp;Humidity;BMP_temperature;BMP_pressure;BME280_temperature;BME280_humidity;BME280_pressure;Samples;Min_cycle;Max_cycle;Signal;HPM_P1;HPM_P2
2021/03/02 00:00:03;;;;;;;11.20;6.00;;;;;;;6.44;62.52;98006.75;5079893;28;20212;-68
2021/03/02 00:02:28;;;;;;;6.47;5.43;;;;;;;6.45;62.83;98005.78;5072621;28;20298;-68
2021/03/02 00:04:54;;;;;;;7.87;5.73;;;;;;;6.46;62.94;98007.41;5086774;28;20630;-68
2021/03/02 00:07:20;;;;;;;7.13;5.77;;;;;;;6.48;62.52;98014.06;5078618;28;20185;-65
2021/03/02 00:09:46;;;;;;;9.97;6.03;;;;;;;6.44;62.73;98007.56;5082482;28;20201;-68
2021/03/02 00:12:13;;;;;;;7.67;5.57;;;;;;;6.55;62.96;98008.97;5077468;28;20197;-68
2021/03/02 00:14:39;;;;;;;7.37;5.40;;;;;;;6.49;62.52;98013.09;5087665;28;20211;-67
2021/03/02 00:17:20;;;;;;;7.10;5.40;;;;;;;6.53;62.48;98014.34;5077431;28;20216;-68
2021/03/02 00:20:07;;;;;;;6.67;5.63;;;;;;;6.57;62.62;98014.84;5084588;28;20234;-68
2021/03/02 00:22:41;;;;;;;5.83;5.07;;;;;;;6.62;62.20;98012.53;5073531;28;20185;-66
2021/03/02 00:25:09;;;;;;;7.50;5.23;;;;;;;6.39;63.03;98015.09;5071647;28;20178;-67
2021/03/02 00:27:35;;;;;;;7.33;5.80;;;;;;;6.32;63.10;98015.91;5079430;28;20187;-67
2021/03/02 00:30:02;;;;;;;6.60;5.40;;;;;;;6.36;63.17;98017.19;5076470;28;20197;-68
2021/03/02 00:32:28;;;;;;;9.87;5.63;;;;;;;6.32;63.47;98011.53;5086235;28;20257;-67
2021/03/02 00:34:53;;;;;;;8.03;5.70;;;;;;;6.31;63.31;98012.50;5075971;28;20263;-68
2021/03/02 00:37:18;;;;;;;11.50;5.63;;;;;;;6.34;63.24;98006.16;5083232;28;20177;-65
2021/03/02 00:39:44;;;;;;;7.87;5.43;;;;;;;6.24;63.69;98009.75;5082422;28;20189;-68
2021/03/02 00:42:10;;;;;;;8.20;5.77;;;;;;;6.08;64.30;98017.63;5075014;28;20242;-66
2021/03/02 00:44:35;;;;;;;10.30;6.17;;;;;;;6.12;64.18;98010.31;5077408;28;20264;-67
2021/03/02 00:47:01;;;;;;;8.70;6.43;;;;;;;6.19;64.06;98008.66;5078285;28;20199;-68
2021/03/02 00:49:26;;;;;;;10.30;5.97;;;;;;;6.06;64.56;98014.41;5088833;28;20181;-68
2021/03/02 00:51:52;;;;;;;8.70;6.30;;;;;;;6.17;64.33;98011.44;5077757;28;20192;-67
2021/03/02 00:54:18;;;;;;;11.97;7.73;;;;;;;6.24;64.56;98019.38;5081883;28;20227;-67
2021/03/02 00:56:43;;;;;;;13.23;7.60;;;;;;;6.23;64.38;98007.34;5086086;28;20263;-67
2021/03/02 00:59:09;;;;;;;11.60;6.73;;;;;;;6.32;64.38;98014.13;5079523;28;20214;-68
2021/03/02 01:01:34;;;;;;;11.33;6.90;;;;;;;6.30;64.23;98015.31;5082433;28;20215;-69
2021/03/02 01:04:00;;;;;;;11.23;6.97;;;;;;;6.25;64.51;98013.19;5076279;28;20702;-69
2021/03/02 01:06:25;;;;;;;8.53;6.03;;;;;;;6.14;65.10;98014.38;5079297;28;20199;-68
2021/03/02 01:08:51;;;;;;;9.93;6.27;;;;;;;6.10;65.06;98018.28;5089140;28;20181;-69
2021/03/02 01:11:16;;;;;;;9.40;6.70;;;;;;;6.01;65.32;98013.28;5087432;28;20204;-69
2021/03/02 01:13:42;;;;;;;9.27;6.37;;;;;;;5.95;65.89;98011.34;5077070;28;20380;-69
2021/03/02 01:16:07;;;;;;;7.43;6.00;;;;;;;5.85;66.31;98006.31;5072948;28;20260;-68
2021/03/02 01:18:32;;;;;;;8.37;6.17;;;;;;;5.79;66.58;98005.19;5085494;28;20185;-69
2021/03/02 01:20:58;;;;;;;10.17;5.90;;;;;;;5.74;66.89;98002.25;5079331;28;20637;-68
2021/03/02 01:23:23;;;;;;;8.70;6.73;;;;;;;5.76;66.87;98009.88;5088572;28;20196;-67
2021/03/02 01:25:49;;;;;;;7.70;6.20;;;;;;;5.82;67.01;98002.22;5075515;28;20282;-68
2021/03/02 01:28:14;;;;;;;8.60;6.03;;;;;;;5.66;67.46;98004.06;5085955;28;20184;-67
2021/03/02 01:30:40;;;;;;;8.90;6.20;;;;;;;5.57;67.54;98005.88;5076578;28;20741;-68
2021/03/02 01:33:05;;;;;;;8.27;5.90;;;;;;;5.57;67.44;98000.69;5081241;28;20213;-68
2021/03/02 01:35:31;;;;;;;9.37;6.53;;;;;;;5.55;67.86;97997.41;5083763;28;20189;-68
2021/03/02 01:37:56;;;;;;;10.83;6.70;;;;;;;5.49;67.77;98005.88;5088610;28;20184;-68
2021/03/02 01:40:22;;;;;;;8.47;5.97;;;;;;;5.40;68.35;98002.47;5075346;28;20188;-65
2021/03/02 01:42:48;;;;;;;8.30;6.33;;;;;;;5.36;68.24;97995.16;5083469;28;20209;-69
2021/03/02 01:45:16;;;;;;;6.73;5.67;;;;;;;5.32;68.30;97999.88;5079028;28;20663;-67
2021/03/02 01:47:43;;;;;;;10.57;6.30;;;;;;;5.31;67.84;98003.44;5089402;28;20195;-66
2021/03/02 01:50:10;;;;;;;8.57;6.30;;;;;;;5.28;68.26;98003.78;5091080;28;20209;-68
2021/03/02 01:52:36;;;;;;;9.00;6.57;;;;;;;5.31;68.43;98006.03;5081255;28;20185;-68
2021/03/02 01:55:03;;;;;;;8.00;6.27;;;;;;;5.26;68.63;98002.31;5083592;28;20185;-68
2021/03/02 01:57:29;;;;;;;10.20;6.10;;;;;;;5.29;69.45;98005.41;5075153;28;20189;-70
2021/03/02 01:59:54;;;;;;;11.33;6.20;;;;;;;5.25;69.90;98001.50;5090850;28;20192;-68
2021/03/02 02:02:34;;;;;;;8.93;6.40;;;;;;;5.31;69.80;98007.81;5078273;28;20663;-66
2021/03/02 02:05:01;;;;;;;8.80;6.10;;;;;;;5.34;69.09;98005.72;5082733;28;20176;-67
2021/03/02 02:07:35;;;;;;;8.33;6.20;;;;;;;5.40;69.37;97999.88;5088854;28;20219;-67
2021/03/02 02:10:07;;;;;;;8.70;6.10;;;;;;;5.48;69.43;97999.03;5074557;28;20196;-68
2021/03/02 02:12:37;;;;;;;8.67;6.30;;;;;;;5.46;69.05;97992.41;5080939;28;20173;-67
2021/03/02 02:15:06;;;;;;;9.60;6.27;;;;;;;5.62;68.91;97997.56;5082304;28;20188;-68
2021/03/02 02:18:01;;;;;;;8.60;5.90;;;;;;;5.50;68.66;97998.88;5079044;28;20188;-67
2021/03/02 02:20:50;;;;;;;10.23;5.60;;;;;;;5.33;69.42;97998.91;5073408;28;20621;-67
2021/03/02 02:24:09;;;;;;;7.63;5.33;;;;;;;5.29;69.44;97997.63;5087765;28;20196;-68
2021/03/02 02:26:53;;;;;;;10.07;5.43;;;;;;;5.33;69.36;97987.69;5018896;28;20274;-68
2021/03/02 02:29:22;;;;;;;6.60;5.50;;;;;;;5.51;69.48;97993.53;5084238;28;20644;-67
2021/03/02 02:31:51;;;;;;;8.30;5.57;;;;;;;5.45;69.21;97991.59;5075679;28;20232;-67
2021/03/02 02:34:18;;;;;;;8.60;5.77;;;;;;;5.31;69.84;97981.84;5087600;28;20173;-68
2021/03/02 02:36:57;;;;;;;6.30;4.97;;;;;;;5.23;69.71;97982.66;5082439;28;20197;-68
2021/03/02 02:39:24;;;;;;;11.30;5.70;;;;;;;5.31;69.91;97981.84;5077682;28;20173;-65
2021/03/02 02:41:51;;;;;;;9.20;5.83;;;;;;;5.28;69.78;97987.38;5075720;28;20211;-68
2021/03/02 02:44:17;;;;;;;8.13;5.70;;;;;;;5.32;69.43;97992.06;5093106;28;20191;-67
2021/03/02 02:46:44;;;;;;;7.77;5.73;;;;;;;5.15;70.37;97989.63;5081965;28;20251;-67
2021/03/02 02:49:11;;;;;;;6.47;5.57;;;;;;;5.00;71.06;97990.28;5087701;28;20188;-68
2021/03/02 02:51:38;;;;;;;7.53;5.17;;;;;;;5.07;70.72;97998.22;5076227;28;20859;-67
2021/03/02 02:54:06;;;;;;;6.43;5.37;;;;;;;5.13;70.65;97999.38;5089181;28;20545;-68
2021/03/02 02:56:33;;;;;;;8.93;6.30;;;;;;;4.98;70.69;97999.22;5081968;28;20186;-68
2021/03/02 02:59:22;;;;;;;8.03;5.47;;;;;;;5.00;70.82;97995.50;5083772;28;20192;-66
2021/03/02 03:01:56;;;;;;;8.43;6.17;;;;;;;4.91;70.08;97993.84;5074250;28;20182;-68
2021/03/02 03:04:26;;;;;;;10.57;6.60;;;;;;;4.85;70.10;97991.88;5081074;28;20173;-65
2021/03/02 03:06:56;;;;;;;8.83;6.83;;;;;;;4.76;70.10;97992.84;5090980;28;20634;-68
2021/03/02 03:09:23;;;;;;;9.70;6.97;;;;;;;4.68;70.78;97987.63;5075925;28;20185;-65
2021/03/02 03:12:01;;;;;;;10.83;7.13;;;;;;;4.76;70.04;97989.44;5074745;28;20339;-68
2021/03/02 03:14:28;;;;;;;10.53;7.27;;;;;;;4.80;70.13;97995.94;5082338;28;20188;-68
2021/03/02 03:16:57;;;;;;;12.67;7.57;;;;;;;4.80;70.08;97995.94;5084832;28;20192;-68
2021/03/02 03:19:29;;;;;;;9.23;7.30;;;;;;;4.84;69.67;97995.47;5075158;28;20314;-66
2021/03/02 03:21:56;;;;;;;12.07;7.27;;;;;;;4.84;69.92;97997.25;5087159;28;20571;-67
2021/03/02 03:24:25;;;;;;;11.13;7.53;;;;;;;4.86;69.50;97993.50;5081300;28;20180;-65
2021/03/02 03:26:52;;;;;;;12.50;7.97;;;;;;;4.73;70.28;97994.97;5083280;28;20185;-68
2021/03/02 03:29:20;;;;;;;12.60;7.93;;;;;;;4.60;70.56;97993.66;5088419;28;20185;-68
2021/03/02 03:31:45;;;;;;;10.83;7.33;;;;;;;4.55;70.47;97995.91;5077101;28;20310;-68
2021/03/02 03:34:15;;;;;;;12.90;7.80;;;;;;;4.57;70.02;98000.91;5083018;28;20181;-68
2021/03/02 03:36:41;;;;;;;10.33;7.77;;;;;;;4.60;70.52;98001.44;5083940;28;20644;-68
2021/03/02 03:39:07;;;;;;;12.53;7.13;;;;;;;4.57;69.83;97999.13;5075102;28;20185;-67
2021/03/02 03:41:33;;;;;;;9.87;7.33;;;;;;;4.51;70.70;97999.00;5087516;28;20227;-68
2021/03/02 03:43:59;;;;;;;9.23;7.47;;;;;;;4.42;70.73;98005.09;5080538;28;20534;-68
2021/03/02 03:46:24;;;;;;;11.53;8.30;;;;;;;4.40;71.14;98004.47;5082410;28;20264;-67
2021/03/02 03:48:50;;;;;;;11.37;8.33;;;;;;;4.52;70.45;98010.97;5078385;28;20217;-67
2021/03/02 03:51:16;;;;;;;12.20;8.13;;;;;;;4.45;70.41;98008.22;5088708;28;20573;-66
2021/03/02 03:53:42;;;;;;;13.47;7.53;;;;;;;4.42;70.80;98008.50;5077026;28;20180;-67
2021/03/02 03:56:08;;;;;;;11.33;8.03;;;;;;;4.34;70.59;98008.50;5082940;28;20189;-68
2021/03/02 03:58:36;;;;;;;11.37;7.87;;;;;;;4.17;71.59;98002.44;5083988;28;20191;-68
2021/03/02 04:01:03;;;;;;;11.23;7.53;;;;;;;4.09;71.96;98007.59;5089880;28;20184;-68
2021/03/02 04:03:32;;;;;;;9.60;7.83;;;;;;;4.12;71.72;98009.06;5086930;28;20208;-68
2021/03/02 04:05:59;;;;;;;13.43;7.97;;;;;;;4.04;72.17;98003.81;5079284;28;20207;-68
2021/03/02 04:08:25;;;;;;;12.93;8.47;;;;;;;4.15;72.25;98006.97;5082977;28;20242;-69
2021/03/02 04:10:50;;;;;;;11.40;7.53;;;;;;;4.11;72.15;98005.66;5075793;28;20216;-69
2021/03/02 04:13:16;;;;;;;9.67;7.30;;;;;;;4.04;72.17;98012.44;5089527;28;20196;-69
2021/03/02 04:15:45;;;;;;;9.90;7.30;;;;;;;3.95;73.14;98017.75;5084400;28;20173;-69
2021/03/02 04:18:13;;;;;;;13.87;7.63;;;;;;;3.97;72.71;98016.59;5082432;28;20203;-69
2021/03/02 04:20:40;;;;;;;9.60;7.40;;;;;;;3.89;73.02;98018.34;5076383;28;20335;-69
2021/03/02 04:23:05;;;;;;;12.17;7.97;;;;;;;3.89;73.38;98024.34;5087942;28;20184;-69
2021/03/02 04:25:31;;;;;;;11.53;7.80;;;;;;;3.85;73.15;98024.78;5075768;28;20290;-67
2021/03/02 04:27:58;;;;;;;9.30;7.67;;;;;;;3.85;73.12;98023.00;5082380;28;20185;-68
2021/03/02 04:30:24;;;;;;;10.23;7.77;;;;;;;3.81;73.35;98019.09;5083964;28;20264;-65
2021/03/02 04:32:50;;;;;;;11.27;7.57;;;;;;;3.70;73.67;98021.97;5074746;28;20260;-67
2021/03/02 04:35:15;;;;;;;8.70;7.40;;;;;;;3.72;73.53;98022.63;5089902;28;20669;-68
2021/03/02 04:37:41;;;;;;;10.43;8.20;;;;;;;3.76;73.84;98026.53;5082403;28;20774;-67
2021/03/02 04:40:08;;;;;;;10.23;7.77;;;;;;;3.78;73.40;98028.97;5079525;28;20189;-68
2021/03/02 04:42:33;;;;;;;12.63;7.80;;;;;;;3.79;73.68;98023.63;5085074;28;20649;-69
2021/03/02 04:44:59;;;;;;;10.87;7.43;;;;;;;3.69;73.83;98026.31;5079729;28;20237;-66
2021/03/02 04:47:24;;;;;;;12.67;7.73;;;;;;;3.60;74.19;98031.63;5079480;28;20264;-65
2021/03/02 04:49:50;;;;;;;11.70;7.30;;;;;;;3.66;74.02;98026.66;5084974;28;20326;-68
2021/03/02 04:52:18;;;;;;;9.23;7.50;;;;;;;3.62;74.00;98030.47;5073158;28;20204;-68
2021/03/02 04:54:44;;;;;;;12.17;8.03;;;;;;;3.57;74.58;98032.72;5078442;28;20784;-68
2021/03/02 04:57:10;;;;;;;11.47;8.03;;;;;;;3.54;74.71;98035.63;5081745;28;20181;-68
2021/03/02 04:59:35;;;;;;;9.00;7.13;;;;;;;3.59;74.58;98033.41;5075449;28;20189;-68
2021/03/02 05:02:01;;;;;;;11.33;7.27;;;;;;;3.60;74.37;98027.25;5087299;28;20192;-68
2021/03/02 05:04:26;;;;;;;10.87;7.70;;;;;;;3.56;74.80;98030.31;5074000;28;20648;-68
2021/03/02 05:06:51;;;;;;;11.50;7.67;;;;;;;3.58;74.91;98031.75;5083852;28;20189;-68
2021/03/02 05:09:17;;;;;;;9.80;7.50;;;;;;;3.56;75.11;98031.13;5071455;28;20181;-68
2021/03/02 05:11:42;;;;;;;11.73;8.03;;;;;;;3.51;74.84;98027.34;5087047;28;20207;-69
2021/03/02 05:14:08;;;;;;;11.27;7.80;;;;;;;3.51;75.10;98025.56;5074496;28;20189;-69
2021/03/02 05:16:33;;;;;;;11.20;8.07;;;;;;;3.46;74.89;98025.19;5083197;28;20263;-70
2021/03/02 05:18:58;;;;;;;11.40;8.70;;;;;;;3.44;75.36;98031.50;5072271;28;20549;-68
2021/03/02 05:21:24;;;;;;;14.77;8.33;;;;;;;3.37;74.84;98028.69;5073492;28;20191;-65
2021/03/02 05:23:49;;;;;;;12.43;8.40;;;;;;;3.28;75.35;98022.66;5091307;28;20180;-68
2021/03/02 05:26:15;;;;;;;10.90;8.00;;;;;;;3.24;75.39;98023.91;5080002;28;20196;-68
2021/03/02 05:28:40;;;;;;;15.23;8.43;;;;;;;3.20;76.01;98017.41;5083646;28;20176;-69
2021/03/02 05:31:06;;;;;;;12.07;8.33;;;;;;;3.13;75.77;98029.31;5082141;28;20197;-69
2021/03/02 05:33:31;;;;;;;12.93;8.53;;;;;;;3.13;75.56;98031.91;5089561;28;20299;-68
2021/03/02 05:35:56;;;;;;;13.13;8.30;;;;;;;3.11;76.39;98033.84;5079395;28;20262;-68
2021/03/02 05:38:22;;;;;;;11.13;7.87;;;;;;;3.11;76.41;98031.25;5079828;28;20188;-65
2021/03/02 05:40:47;;;;;;;11.37;8.60;;;;;;;3.08;76.53;98030.72;5085136;28;20189;-68
2021/03/02 05:43:12;;;;;;;11.43;8.50;;;;;;;3.11;75.34;98027.84;5090415;28;20652;-67
2021/03/02 05:45:38;;;;;;;11.23;8.03;;;;;;;3.01;76.51;98033.09;5077628;28;20196;-68
2021/03/02 05:48:08;;;;;;;10.83;8.13;;;;;;;2.92;76.28;98032.22;5080228;28;20286;-67
2021/03/02 05:50:33;;;;;;;11.63;8.23;;;;;;;2.89;76.64;98032.53;5079923;28;20564;-68
2021/03/02 05:53:01;;;;;;;11.30;8.13;;;;;;;2.89;77.47;98029.09;5078252;28;20189;-68
2021/03/02 05:55:26;;;;;;;14.40;9.30;;;;;;;2.85;76.95;98036.34;5090007;28;20180;-66
2021/03/02 05:57:53;;;;;;;13.20;8.77;;;;;;;2.87;76.95;98033.59;5079526;28;20242;-69
2021/03/02 06:00:18;;;;;;;12.13;9.27;;;;;;;2.87;77.55;98031.84;5085774;28;20203;-68
2021/03/02 06:02:44;;;;;;;13.77;8.67;;;;;;;2.93;77.52;98031.25;5084814;28;20357;-68
2021/03/02 06:05:09;;;;;;;12.57;7.97;;;;;;;3.02;77.29;98034.72;5092264;28;20246;-69
2021/03/02 06:07:35;;;;;;;12.53;8.90;;;;;;;3.04;77.00;98037.16;5090744;28;20181;-69
2021/03/02 06:10:01;;;;;;;18.67;8.50;;;;;;;3.08;76.94;98039.31;5092086;28;20941;-68
2021/03/02 06:12:26;;;;;;;15.13;8.93;;;;;;;2.97;76.84;98038.72;5091491;28;20184;-65
2021/03/02 06:15:05;;;;;;;14.13;8.50;;;;;;;3.06;76.52;98036.06;5092321;28;20191;-68
2021/03/02 06:17:30;;;;;;;13.30;9.50;;;;;;;3.11;75.90;98041.63;5088148;28;20188;-68
2021/03/02 06:19:56;;;;;;;14.73;9.13;;;;;;;3.10;75.79;98037.38;5089851;28;20629;-67
2021/03/02 06:22:41;;;;;;;13.47;8.93;;;;;;;3.20;76.08;98045.88;5078661;28;20191;-69
2021/03/02 06:25:26;;;;;;;12.30;8.83;;;;;;;3.37;75.72;98041.66;5082710;28;20223;-69
2021/03/02 06:27:51;;;;;;;12.83;8.80;;;;;;;3.85;79.62;98037.75;5088769;28;20235;-69
2021/03/02 06:30:17;;;;;;;12.13;8.67;;;;;;;4.40;77.55;98040.81;5084237;28;20677;-68
2021/03/02 06:32:48;;;;;;;11.87;8.87;;;;;;;4.46;72.30;98047.94;5077155;28;21054;-71
2021/03/02 06:35:38;;;;;;;12.63;8.90;;;;;;;4.30;71.78;98047.88;5089900;28;20181;-69
2021/03/02 06:38:05;;;;;;;13.17;8.67;;;;;;;4.28;72.06;98055.03;5082591;28;20200;-69
2021/03/02 06:40:48;;;;;;;11.17;8.70;;;;;;;4.26;72.28;98054.34;5079347;28;20186;-69
2021/03/02 06:43:32;;;;;;;14.10;9.97;;;;;;;4.22;72.76;98053.88;5075464;28;20185;-69
2021/03/02 06:46:00;;;;;;;11.97;8.73;;;;;;;4.19;72.67;98059.34;5085353;28;20189;-70
2021/03/02 06:48:25;;;;;;;12.00;8.80;;;;;;;4.39;71.42;98059.94;5084957;28;20643;-67
2021/03/02 06:50:51;;;;;;;11.00;8.37;;;;;;;4.30;72.12;98071.22;5085696;28;20224;-69
2021/03/02 06:53:17;;;;;;;14.57;9.50;;;;;;;4.46;71.20;98072.13;5091982;28;20266;-70
2021/03/02 06:55:42;;;;;;;11.30;8.73;;;;;;;4.49;70.85;98076.19;5092248;28;20181;-69
2021/03/02 06:58:20;;;;;;;12.63;8.77;;;;;;;4.52;70.95;98074.09;5084034;28;20567;-70
2021/03/02 07:00:49;;;;;;;12.13;9.00;;;;;;;4.78;70.32;98073.22;5086583;28;20176;-70
2021/03/02 07:03:25;;;;;;;12.67;8.20;;;;;;;4.81;69.98;98080.69;5077186;28;20215;-69
2021/03/02 07:05:50;;;;;;;11.03;8.27;;;;;;;4.98;70.16;98075.38;5082347;28;20177;-69
2021/03/02 07:08:19;;;;;;;11.77;8.80;;;;;;;5.10;69.41;98080.25;5086355;28;20206;-70
2021/03/02 07:10:50;;;;;;;14.80;8.80;;;;;;;5.10;69.00;98078.47;5088388;28;21014;-70
2021/03/02 07:13:15;;;;;;;12.47;8.63;;;;;;;5.19;68.88;98074.91;5088111;28;20615;-69
2021/03/02 07:15:42;;;;;;;11.77;8.50;;;;;;;5.28;68.75;98076.56;5080066;28;20184;-69
2021/03/02 07:18:11;;;;;;;11.77;8.37;;;;;;;5.43;67.95;98087.13;5080016;28;20177;-70
2021/03/02 07:20:37;;;;;;;12.57;7.67;;;;;;;5.49;68.51;98086.47;5086915;28;20644;-70
2021/03/02 07:23:05;;;;;;;11.63;7.60;;;;;;;5.52;68.08;98093.16;5073013;28;20291;-71
2021/03/02 07:25:31;;;;;;;10.93;8.33;;;;;;;5.69;67.64;98090.34;5076402;28;20185;-69
2021/03/02 07:28:01;;;;;;;10.53;8.17;;;;;;;5.77;67.61;98089.56;5077506;28;20192;-71
2021/03/02 07:30:27;;;;;;;12.30;9.33;;;;;;;5.74;67.02;98097.69;5082247;28;20306;-68
2021/03/02 07:32:54;;;;;;;13.23;9.73;;;;;;;5.74;66.96;98093.28;5080538;28;20224;-70
2021/03/02 07:35:21;;;;;;;13.30;9.00;;;;;;;5.76;66.58;98095.72;5092719;28;20180;-70
2021/03/02 07:37:47;;;;;;;13.10;8.60;;;;;;;5.98;66.73;98102.06;5092322;28;20214;-70
2021/03/02 07:40:15;;;;;;;12.10;9.00;;;;;;;5.94;66.79;98100.78;5091947;28;20191;-70
2021/03/02 07:42:40;;;;;;;12.87;8.17;;;;;;;5.94;66.39;98104.19;5091851;28;20250;-70
2021/03/02 07:45:13;;;;;;;12.13;8.37;;;;;;;6.19;65.80;98108.38;5090632;28;20185;-70
2021/03/02 07:47:49;;;;;;;11.50;8.63;;;;;;;6.32;65.42;98105.25;5091855;28;20238;-70
2021/03/02 07:50:19;;;;;;;14.47;8.57;;;;;;;6.48;66.10;98101.78;5092395;28;20602;-71
2021/03/02 07:52:45;;;;;;;12.00;8.03;;;;;;;6.60;65.34;98105.66;5091944;28;20179;-70
2021/03/02 07:55:37;;;;;;;11.83;8.50;;;;;;;6.65;64.57;98111.97;5092503;28;20192;-68
2021/03/02 07:58:14;;;;;;;13.00;8.80;;;;;;;6.62;64.92;98103.72;5089121;28;20196;-71
2021/03/02 08:00:40;;;;;;;15.10;8.73;;;;;;;6.54;64.79;98104.53;5090981;28;20199;-70
2021/03/02 08:03:21;;;;;;;10.10;8.37;;;;;;;6.69;64.90;98112.44;5092207;28;20191;-71
2021/03/02 08:05:57;;;;;;;10.03;8.30;;;;;;;6.65;64.92;98108.56;5091453;28;20173;-70
2021/03/02 08:08:22;;;;;;;10.43;7.83;;;;;;;6.63;65.30;98116.53;5092115;28;20176;-71
2021/03/02 08:10:47;;;;;;;11.53;8.07;;;;;;;6.75;64.60;98103.97;5091219;28;20200;-71
2021/03/02 08:13:33;;;;;;;11.63;8.60;;;;;;;6.84;64.49;98113.38;5092377;28;20629;-71
2021/03/02 08:16:00;;;;;;;11.10;8.20;;;;;;;6.89;64.29;98112.88;5091737;28;20195;-71
2021/03/02 08:18:30;;;;;;;11.50;8.40;;;;;;;6.90;64.40;98112.72;5091883;28;20644;-71
2021/03/02 08:21:14;;;;;;;12.40;8.93;;;;;;;6.97;63.82;98111.00;5092104;28;20169;-71
2021/03/02 08:23:52;;;;;;;12.30;9.00;;;;;;;7.01;63.57;98119.31;5090968;28;20180;-70
2021/03/02 08:26:33;;;;;;;11.93;9.40;;;;;;;7.01;63.61;98120.13;5091621;28;20203;-71
2021/03/02 08:29:19;;;;;;;13.27;10.53;;;;;;;7.05;63.51;98120.59;5092009;28;20208;-70
2021/03/02 08:31:46;;;;;;;14.03;9.83;;;;;;;7.05;63.63;98125.81;5090086;28;20952;-69
2021/03/02 08:34:13;;;;;;;12.90;9.60;;;;;;;7.18;63.55;98126.06;5091554;28;20187;-69
2021/03/02 08:36:39;;;;;;;14.73;9.40;;;;;;;7.29;63.00;98135.31;5090800;28;20210;-69
2021/03/02 08:39:12;;;;;;;13.00;9.43;;;;;;;7.34;63.06;98132.97;5091246;28;20185;-69
2021/03/02 08:41:40;;;;;;;13.17;9.23;;;;;;;7.34;63.02;98130.38;5089391;28;20198;-69
2021/03/02 08:44:07;;;;;;;12.30;9.23;;;;;;;7.17;63.27;98134.88;5090469;28;20267;-69
2021/03/02 08:46:35;;;;;;;12.10;9.10;;;;;;;7.34;63.12;98136.41;5089522;28;20191;-68
2021/03/02 08:49:08;;;;;;;12.40;8.73;;;;;;;7.38;63.08;98129.03;5091692;28;20169;-69
2021/03/02 08:51:34;;;;;;;15.40;9.33;;;;;;;7.39;63.04;98131.47;5090836;28;20200;-69
2021/03/02 08:54:00;;;;;;;13.70;10.00;;;;;;;7.52;62.60;98125.69;5091514;28;20586;-69
2021/03/02 08:56:25;;;;;;;13.10;9.50;;;;;;;7.45;62.65;98135.19;5094895;28;20180;-69
2021/03/02 08:58:53;;;;;;;13.27;9.80;;;;;;;7.34;62.71;98125.16;5094992;28;20235;-69
2021/03/02 09:01:21;;;;;;;16.20;10.30;;;;;;;7.37;62.79;98127.41;5093544;28;20252;-69
2021/03/02 09:03:48;;;;;;;12.30;10.33;;;;;;;7.41;63.07;98129.50;5092211;28;20188;-69
2021/03/02 09:06:24;;;;;;;14.13;10.03;;;;;;;7.39;63.26;98123.66;5084013;28;20601;-71
2021/03/02 09:08:57;;;;;;;12.77;9.90;;;;;;;7.46;63.02;98129.00;5085188;28;20824;-70
2021/03/02 09:11:53;;;;;;;11.43;9.47;;;;;;;7.45;63.17;98125.56;5081630;28;20195;-69
2021/03/02 09:14:22;;;;;;;16.53;9.40;;;;;;;7.47;63.13;98128.81;5078120;28;20756;-69
2021/03/02 09:16:48;;;;;;;13.07;9.57;;;;;;;7.49;62.65;98136.47;5082900;28;20201;-69
2021/03/02 09:19:15;;;;;;;13.33;9.43;;;;;;;7.53;62.99;98141.16;5082247;28;20242;-70
2021/03/02 09:21:48;;;;;;;11.83;9.60;;;;;;;7.46;63.17;98139.44;5086036;28;20189;-69
2021/03/02 09:24:20;;;;;;;13.87;9.40;;;;;;;7.47;63.21;98135.81;5086109;28;20196;-69
2021/03/02 09:27:00;;;;;;;12.97;9.33;;;;;;;7.56;63.60;98136.59;5082735;28;20226;-69
2021/03/02 09:29:29;;;;;;;13.27;9.83;;;;;;;7.40;64.24;98148.75;5077531;28;20215;-69
2021/03/02 09:32:00;;;;;;;15.07;9.53;;;;;;;7.47;64.23;98143.63;5078145;28;20315;-69
2021/03/02 09:34:37;;;;;;;14.60;10.07;;;;;;;7.61;63.58;98142.91;5082483;28;20651;-69
2021/03/02 09:37:05;;;;;;;12.73;10.27;;;;;;;7.60;63.73;98148.28;5083339;28;20634;-70
2021/03/02 09:39:31;;;;;;;15.17;10.00;;;;;;;7.52;63.44;98146.56;5089190;28;20185;-67
2021/03/02 09:41:57;;;;;;;14.03;10.10;;;;;;;7.62;63.92;98152.38;5087971;28;20540;-70
2021/03/02 09:44:31;;;;;;;15.00;10.60;;;;;;;7.78;63.23;98143.59;5088119;28;20281;-69
2021/03/02 09:47:05;;;;;;;15.27;10.70;;;;;;;7.72;63.52;98150.31;5081861;28;20258;-68
2021/03/02 09:49:44;;;;;;;15.60;11.13;;;;;;;7.72;62.75;98147.72;5096218;28;20263;-67
2021/03/02 09:52:21;;;;;;;19.17;13.60;;;;;;;7.81;63.25;98153.66;5077775;28;20577;-69
2021/03/02 09:55:16;;;;;;;29.70;20.53;;;;;;;7.88;63.26;98152.00;5088163;28;20176;-70
2021/03/02 09:58:22;;;;;;;18.17;13.53;;;;;;;7.97;62.65;98150.16;5086674;28;20272;-70
2021/03/02 10:00:52;;;;;;;24.17;17.60;;;;;;;8.03;62.66;98145.00;5082672;28;20558;-69
2021/03/02 10:03:34;;;;;;;19.77;14.67;;;;;;;8.09;62.90;98144.28;5082846;28;20587;-69
2021/03/02 10:06:02;;;;;;;19.50;15.53;;;;;;;8.15;62.80;98140.16;5082781;28;20180;-69
2021/03/02 10:08:42;;;;;;;23.17;15.67;;;;;;;8.22;63.07;98141.09;5073813;28;20177;-67
2021/03/02 10:11:10;;;;;;;18.80;13.07;;;;;;;8.28;63.32;98143.00;5074578;28;20265;-69
2021/03/02 10:13:39;;;;;;;16.87;12.53;;;;;;;8.36;62.81;98142.91;5080658;28;20216;-68
2021/03/02 10:16:10;;;;;;;14.37;11.53;;;;;;;8.40;63.01;98141.59;5085732;28;20570;-69
2021/03/02 10:18:36;;;;;;;17.47;13.73;;;;;;;8.46;62.30;98140.06;5084120;28;20174;-68
2021/03/02 10:21:08;;;;;;;19.50;12.50;;;;;;;8.42;62.65;98144.81;5081734;28;20196;-71
2021/03/02 10:23:40;;;;;;;15.33;12.03;;;;;;;8.53;62.42;98143.56;5076712;28;20179;-68
2021/03/02 10:26:05;;;;;;;14.97;11.63;;;;;;;8.60;61.60;98150.50;5089554;28;20222;-71
2021/03/02 10:28:34;;;;;;;14.97;11.47;;;;;;;8.77;60.95;98143.28;5079036;28;20177;-67
2021/03/02 10:31:00;;;;;;;15.47;11.87;;;;;;;8.77;61.18;98146.72;5083919;28;20681;-70
2021/03/02 10:33:27;;;;;;;16.10;11.70;;;;;;;8.94;60.84;98149.13;5078130;28;20694;-69
2021/03/02 10:35:53;;;;;;;16.00;11.47;;;;;;;8.95;60.34;98146.34;5084890;28;20207;-69
2021/03/02 10:38:19;;;;;;;13.80;11.10;;;;;;;8.96;60.79;98147.16;5092376;28;20713;-70
2021/03/02 10:40:45;;;;;;;13.93;11.27;;;;;;;9.16;59.74;98143.78;5078272;28;20268;-69
2021/03/02 10:43:10;;;;;;;15.90;11.73;;;;;;;9.25;59.96;98141.84;5075423;28;20184;-69
2021/03/02 10:45:36;;;;;;;14.83;11.60;;;;;;;9.32;59.55;98144.53;5087026;28;20205;-69
2021/03/02 10:48:03;;;;;;;16.53;11.07;;;;;;;9.48;58.61;98152.16;5081992;28;20224;-68
2021/03/02 10:50:28;;;;;;;16.27;11.10;;;;;;;9.58;58.23;98139.59;5080655;28;20598;-67
2021/03/02 10:52:55;;;;;;;18.33;12.20;;;;;;;9.63;57.96;98141.66;5083016;28;20189;-69
2021/03/02 10:55:21;;;;;;;17.23;11.33;;;;;;;9.65;57.76;98137.03;5091641;28;20180;-69
2021/03/02 10:57:46;;;;;;;15.27;11.33;;;;;;;9.65;57.71;98137.84;5086912;28;20192;-69
2021/03/02 11:00:12;;;;;;;16.60;11.37;;;;;;;9.75;57.38;98142.78;5087749;28;20187;-69
2021/03/02 11:02:38;;;;;;;15.60;10.87;;;;;;;9.79;57.52;98139.59;5078697;28;20181;-68
2021/03/02 11:05:05;;;;;;;18.03;12.13;;;;;;;9.87;57.25;98139.47;5070598;28;20267;-69
2021/03/02 11:07:30;;;;;;;14.13;11.60;;;;;;;9.96;56.92;98140.16;5076795;28;20177;-67
2021/03/02 11:09:55;;;;;;;18.70;11.83;;;;;;;9.98;56.84;98133.72;5083104;28;20177;-69
2021/03/02 11:12:21;;;;;;;17.50;11.37;;;;;;;10.12;56.26;98139.06;5084470;28;20259;-69
2021/03/02 11:14:47;;;;;;;17.07;11.17;;;;;;;10.11;56.70;98135.63;5076582;28;20219;-69
2021/03/02 11:17:12;;;;;;;14.47;11.20;;;;;;;10.19;56.40;98132.91;5089807;28;21788;-69
2021/03/02 11:19:38;;;;;;;15.80;11.90;;;;;;;10.18;56.66;98131.28;5085346;28;20196;-68
2021/03/02 11:22:03;;;;;;;13.70;11.00;;;;;;;10.25;56.43;98134.75;5082422;28;20656;-69
2021/03/02 11:24:28;;;;;;;16.83;11.70;;;;;;;10.34;56.35;98127.56;5084574;28;20181;-68
2021/03/02 11:26:54;;;;;;;12.47;10.40;;;;;;;10.32;56.13;98122.50;5078795;28;20263;-68
2021/03/02 11:29:19;;;;;;;14.53;10.73;;;;;;;10.13;56.10;98117.09;5077366;28;20534;-70
2021/03/02 11:31:45;;;;;;;16.00;12.03;;;;;;;10.37;56.00;98114.06;5085561;28;20244;-69
2021/03/02 11:34:10;;;;;;;12.77;10.47;;;;;;;10.47;55.38;98118.97;5084630;28;20676;-69
2021/03/02 11:36:36;;;;;;;17.90;11.13;;;;;;;10.39;54.36;98114.69;5077840;28;20185;-69
2021/03/02 11:39:03;;;;;;;15.50;10.47;;;;;;;10.38;53.77;98110.44;5080735;28;20189;-69
2021/03/02 11:41:28;;;;;;;14.60;10.63;;;;;;;10.53;54.03;98112.97;5075303;28;20185;-68